Mohammedia, Morocco
Current Conditions -  °F | °C
As of 6:00 AM on Tuesday 21 Oct 2014 (Local Time) from GMMB Reporting Station
Clear Clear  
Wind Chill: 66°   Ceiling: Unl
Heat Index: 66°   Visibility: NA
Dew Point: 41°   Wind: 7mph
Humidity: 40%   Direction: 150°SSE
Pressure: 30.09"   Gusts: NA
Location:  33.71°N, 7.39°W
Report Text: GMMB 210500Z AUTO 15006KT //// NCD 19/05 Q1019
Loading
Personal Weather Stations






























Interactive Weather Map
Tropical Storm Tracking
New forecast layout! Learn more

10-Day Weather Forecast

Advertisements
Track Severe Weather on mobile